TUP9631 UUWW-URML
Flight info
| Callsign | TUP9631 |
|---|---|
| Flight time | 2h 36m |
| Altitude | 35000 |
| Route | TOGMO M56 ABAGI DCT NIMTA DCT RODUN DCT SL DCT SUBED DCT LIDUS DCT AST DCT ZG DCT ITAKA DCT RIRAN |
| Aircraft | B752/M-SDE2E3FGHIJ3J4J7RWXY/LB1 |
Departure
| Time | 2026-04-29 18:32 |
|---|---|
| Airport | Vnukovo International Airport (UUWW) |
Arrival
| Time | 2026-04-29 21:08 |
|---|---|
| Airport | Makhachkala Uytash International Airport (URML) |
| Time | Latitude | Longitude | Altitude | Speed | Heading |
|---|---|---|---|---|---|
| 2026-04-29 18:06 | 55.60711 | 37.27995 | 661 ft | 0 kts | 47° |
| 2026-04-29 18:08 | 55.60711 | 37.27994 | 661 ft | 0 kts | 47° |
| 2026-04-29 18:08 | 55.60711 | 37.27995 | 662 ft | 0 kts | 47° |
| 2026-04-29 18:09 | 55.60711 | 37.27994 | 662 ft | 0 kts | 47° |
| 2026-04-29 18:11 | 55.60706 | 37.27985 | 661 ft | 2 kts | 47° |
| 2026-04-29 18:12 | 55.60695 | 37.27965 | 660 ft | 2 kts | 53° |
| 2026-04-29 18:12 | 55.60689 | 37.27942 | 660 ft | 2 kts | 71° |
| 2026-04-29 18:12 | 55.60686 | 37.27916 | 659 ft | 2 kts | 87° |
| 2026-04-29 18:12 | 55.60687 | 37.27889 | 657 ft | 2 kts | 103° |
| 2026-04-29 18:13 | 55.60692 | 37.27864 | 656 ft | 2 kts | 118° |
| 2026-04-29 18:13 | 55.60701 | 37.27843 | 655 ft | 1 kts | 134° |
| 2026-04-29 18:13 | 55.60706 | 37.27835 | 655 ft | 1 kts | 139° |
| 2026-04-29 18:13 | 55.60707 | 37.27834 | 654 ft | 0 kts | 138° |
| 2026-04-29 18:20 | 55.60694 | 37.27855 | 656 ft | 4 kts | 136° |
| 2026-04-29 18:20 | 55.60677 | 37.27885 | 658 ft | 2 kts | 126° |
| 2026-04-29 18:20 | 55.60661 | 37.27920 | 660 ft | 6 kts | 131° |
| 2026-04-29 18:21 | 55.60614 | 37.28007 | 664 ft | 0 kts | 130° |
| 2026-04-29 18:21 | 55.60605 | 37.28026 | 665 ft | 0 kts | 131° |
| 2026-04-29 18:22 | 55.60587 | 37.28056 | 665 ft | 8 kts | 139° |
| 2026-04-29 18:22 | 55.60542 | 37.28086 | 667 ft | 5 kts | 182° |
| 2026-04-29 18:22 | 55.60507 | 37.28061 | 667 ft | 7 kts | 218° |
| 2026-04-29 18:23 | 55.60453 | 37.27962 | 666 ft | 14 kts | 228° |
| 2026-04-29 18:23 | 55.60383 | 37.27856 | 666 ft | 9 kts | 205° |
| 2026-04-29 18:23 | 55.60327 | 37.27830 | 666 ft | 7 kts | 192° |
| 2026-04-29 18:23 | 55.60284 | 37.27817 | 667 ft | 5 kts | 185° |
| 2026-04-29 18:24 | 55.60239 | 37.27814 | 668 ft | 9 kts | 181° |
| 2026-04-29 18:24 | 55.60170 | 37.27831 | 670 ft | 0 kts | 161° |
| 2026-04-29 18:24 | 55.60146 | 37.27848 | 670 ft | 11 kts | 154° |
| 2026-04-29 18:25 | 55.60094 | 37.27926 | 673 ft | 8 kts | 128° |
| 2026-04-29 18:25 | 55.60065 | 37.28031 | 676 ft | 11 kts | 104° |
| 2026-04-29 18:25 | 55.60060 | 37.28163 | 678 ft | 9 kts | 89° |
| 2026-04-29 18:25 | 55.60062 | 37.28260 | 678 ft | 7 kts | 86° |
| 2026-04-29 18:26 | 55.60070 | 37.28346 | 678 ft | 6 kts | 72° |
| 2026-04-29 18:26 | 55.60093 | 37.28413 | 678 ft | 6 kts | 57° |
| 2026-04-29 18:26 | 55.60120 | 37.28481 | 677 ft | 3 kts | 50° |
| 2026-04-29 18:26 | 55.60122 | 37.28484 | 677 ft | 1 kts | 50° |
| 2026-04-29 18:27 | 55.60127 | 37.28495 | 677 ft | 1 kts | 50° |
| 2026-04-29 18:27 | 55.60147 | 37.28536 | 677 ft | 6 kts | 49° |
| 2026-04-29 18:27 | 55.60178 | 37.28591 | 676 ft | 5 kts | 50° |
| 2026-04-29 18:27 | 55.60189 | 37.28654 | 676 ft | 5 kts | 99° |
| 2026-04-29 18:28 | 55.60166 | 37.28722 | 676 ft | 8 kts | 129° |
| 2026-04-29 18:28 | 55.60123 | 37.28796 | 676 ft | 8 kts | 143° |
| 2026-04-29 18:28 | 55.60068 | 37.28844 | 676 ft | 10 kts | 165° |
| 2026-04-29 18:28 | 55.59993 | 37.28876 | 676 ft | 11 kts | 167° |
| 2026-04-29 18:29 | 55.59926 | 37.28902 | 677 ft | 5 kts | 167° |
| 2026-04-29 18:29 | 55.59922 | 37.28904 | 677 ft | 0 kts | 167° |
| 2026-04-29 18:29 | 55.59921 | 37.28904 | 677 ft | 0 kts | 167° |
| 2026-04-29 18:30 | 55.59895 | 37.28915 | 677 ft | 9 kts | 167° |
| 2026-04-29 18:30 | 55.59826 | 37.28939 | 678 ft | 7 kts | 174° |
| 2026-04-29 18:30 | 55.59791 | 37.28921 | 680 ft | 4 kts | 218° |
| 2026-04-29 18:30 | 55.59773 | 37.28877 | 681 ft | 5 kts | 243° |
| 2026-04-29 18:31 | 55.59766 | 37.28848 | 681 ft | 0 kts | 246° |
| 2026-04-29 18:31 | 55.59735 | 37.28712 | 681 ft | 38 kts | 248° |
| 2026-04-29 18:31 | 55.59551 | 37.27895 | 674 ft | 104 kts | 249° |
| 2026-04-29 18:31 | 55.59200 | 37.26337 | 657 ft | 164 kts | 249° |
| 2026-04-29 18:32 | 55.58707 | 37.24330 | 960 ft | 192 kts | 241° |
| 2026-04-29 18:32 | 55.57155 | 37.20335 | 2299 ft | 215 kts | 237° |
| 2026-04-29 18:32 | 55.56235 | 37.18085 | 2772 ft | 231 kts | 237° |
| 2026-04-29 18:33 | 55.55238 | 37.15808 | 3421 ft | 241 kts | 224° |
| 2026-04-29 18:33 | 55.53782 | 37.14385 | 4126 ft | 248 kts | 197° |
| 2026-04-29 18:33 | 55.52135 | 37.13570 | 4919 ft | 249 kts | 197° |
| 2026-04-29 18:33 | 55.50470 | 37.12741 | 5636 ft | 253 kts | 195° |
| 2026-04-29 18:34 | 55.48672 | 37.12511 | 6109 ft | 268 kts | 166° |
| 2026-04-29 18:34 | 55.47505 | 37.13279 | 6578 ft | 268 kts | 146° |
| 2026-04-29 18:34 | 55.45463 | 37.15918 | 7256 ft | 285 kts | 141° |
| 2026-04-29 18:34 | 55.43878 | 37.18013 | 8052 ft | 287 kts | 141° |
| 2026-04-29 18:35 | 55.42283 | 37.20136 | 8795 ft | 291 kts | 141° |
| 2026-04-29 18:35 | 55.40657 | 37.22308 | 9026 ft | 302 kts | 141° |
| 2026-04-29 18:35 | 55.38996 | 37.24524 | 9021 ft | 294 kts | 141° |
| 2026-04-29 18:35 | 55.37404 | 37.26741 | 8996 ft | 289 kts | 133° |
| 2026-04-29 18:36 | 55.36031 | 37.29347 | 9313 ft | 298 kts | 131° |
| 2026-04-29 18:36 | 55.34616 | 37.31916 | 10279 ft | 292 kts | 131° |
| 2026-04-29 18:36 | 55.33181 | 37.34554 | 10557 ft | 311 kts | 131° |
| 2026-04-29 18:36 | 55.31649 | 37.37374 | 10826 ft | 329 kts | 131° |
| 2026-04-29 18:37 | 55.30026 | 37.40360 | 11215 ft | 343 kts | 131° |
| 2026-04-29 18:37 | 55.28383 | 37.43378 | 11926 ft | 346 kts | 131° |
| 2026-04-29 18:37 | 55.26733 | 37.46408 | 12538 ft | 350 kts | 132° |
| 2026-04-29 18:37 | 55.25048 | 37.49498 | 13188 ft | 354 kts | 132° |
| 2026-04-29 18:38 | 55.23342 | 37.52625 | 13834 ft | 357 kts | 132° |
| 2026-04-29 18:38 | 55.21611 | 37.55790 | 14454 ft | 360 kts | 132° |
| 2026-04-29 18:38 | 55.19895 | 37.58927 | 15071 ft | 363 kts | 132° |
| 2026-04-29 18:38 | 55.18134 | 37.62141 | 15672 ft | 367 kts | 132° |
| 2026-04-29 18:39 | 55.16382 | 37.65334 | 16264 ft | 370 kts | 133° |
| 2026-04-29 18:39 | 55.14589 | 37.68597 | 16815 ft | 374 kts | 133° |
| 2026-04-29 18:39 | 55.12785 | 37.71876 | 17425 ft | 376 kts | 133° |
| 2026-04-29 18:39 | 55.10988 | 37.75147 | 17944 ft | 380 kts | 132° |
| 2026-04-29 18:40 | 55.09437 | 37.78852 | 18483 ft | 381 kts | 117° |
| 2026-04-29 18:40 | 55.08414 | 37.83126 | 18985 ft | 383 kts | 109° |
| 2026-04-29 18:40 | 55.07427 | 37.87441 | 19558 ft | 385 kts | 112° |
| 2026-04-29 18:40 | 55.06374 | 37.91733 | 20064 ft | 388 kts | 112° |
| 2026-04-29 18:41 | 55.03048 | 38.04652 | 21542 ft | 397 kts | 113° |
| 2026-04-29 18:41 | 55.01893 | 38.09047 | 22094 ft | 398 kts | 113° |
| 2026-04-29 18:42 | 55.00745 | 38.13392 | 22549 ft | 401 kts | 114° |
| 2026-04-29 18:42 | 54.99573 | 38.17816 | 23000 ft | 403 kts | 114° |
| 2026-04-29 18:42 | 54.98397 | 38.22241 | 23505 ft | 405 kts | 113° |
| 2026-04-29 18:42 | 54.97218 | 38.26667 | 23954 ft | 407 kts | 113° |
| 2026-04-29 18:43 | 54.96028 | 38.31125 | 24407 ft | 409 kts | 113° |
| 2026-04-29 18:43 | 54.94836 | 38.35579 | 24830 ft | 411 kts | 113° |
| 2026-04-29 18:43 | 54.93624 | 38.40103 | 25250 ft | 413 kts | 113° |
| 2026-04-29 18:43 | 54.92421 | 38.44584 | 25693 ft | 415 kts | 113° |
| 2026-04-29 18:44 | 54.91198 | 38.49124 | 26028 ft | 418 kts | 113° |
| 2026-04-29 18:44 | 54.89960 | 38.53715 | 26405 ft | 421 kts | 113° |
| 2026-04-29 18:44 | 54.88727 | 38.58279 | 26764 ft | 423 kts | 113° |
| 2026-04-29 18:44 | 54.87470 | 38.62921 | 27121 ft | 426 kts | 113° |
| 2026-04-29 18:45 | 54.86214 | 38.67548 | 27464 ft | 428 kts | 114° |
| 2026-04-29 18:45 | 54.84927 | 38.72280 | 27841 ft | 430 kts | 114° |
| 2026-04-29 18:45 | 54.83641 | 38.77001 | 28135 ft | 433 kts | 114° |
| 2026-04-29 18:45 | 54.82362 | 38.81685 | 28505 ft | 434 kts | 114° |
| 2026-04-29 18:46 | 54.81062 | 38.86440 | 28791 ft | 437 kts | 114° |
| 2026-04-29 18:46 | 54.79765 | 38.91171 | 29137 ft | 438 kts | 114° |
| 2026-04-29 18:46 | 54.78457 | 38.95930 | 29416 ft | 440 kts | 114° |
| 2026-04-29 18:46 | 54.77143 | 39.00702 | 29698 ft | 443 kts | 114° |
| 2026-04-29 18:47 | 54.75810 | 39.05537 | 30012 ft | 444 kts | 114° |
| 2026-04-29 18:47 | 54.74485 | 39.10331 | 30249 ft | 447 kts | 114° |
| 2026-04-29 18:47 | 54.73142 | 39.15179 | 30508 ft | 449 kts | 114° |
| 2026-04-29 18:47 | 54.71801 | 39.20008 | 30776 ft | 450 kts | 114° |
| 2026-04-29 18:48 | 54.70443 | 39.24889 | 31054 ft | 450 kts | 114° |
| 2026-04-29 18:48 | 54.69090 | 39.29744 | 31362 ft | 450 kts | 114° |
| 2026-04-29 18:48 | 54.67724 | 39.34634 | 31614 ft | 449 kts | 114° |
| 2026-04-29 18:48 | 54.66378 | 39.39443 | 31767 ft | 449 kts | 114° |
| 2026-04-29 18:49 | 54.65011 | 39.44320 | 31894 ft | 451 kts | 114° |
| 2026-04-29 18:49 | 54.63646 | 39.49174 | 32059 ft | 450 kts | 114° |
| 2026-04-29 18:49 | 54.62278 | 39.54033 | 32185 ft | 452 kts | 115° |
| 2026-04-29 18:49 | 54.60904 | 39.58899 | 32311 ft | 452 kts | 115° |
| 2026-04-29 18:50 | 54.59521 | 39.63788 | 32482 ft | 452 kts | 115° |
| 2026-04-29 18:50 | 54.58147 | 39.68634 | 32578 ft | 453 kts | 116° |
| 2026-04-29 18:50 | 54.56767 | 39.73494 | 32733 ft | 453 kts | 116° |
| 2026-04-29 18:50 | 54.55382 | 39.78360 | 32837 ft | 455 kts | 116° |
| 2026-04-29 18:51 | 54.53990 | 39.83239 | 32975 ft | 454 kts | 116° |
| 2026-04-29 18:51 | 54.52610 | 39.88067 | 33063 ft | 456 kts | 116° |
| 2026-04-29 18:51 | 54.51199 | 39.92994 | 33214 ft | 456 kts | 117° |
| 2026-04-29 18:51 | 54.49804 | 39.97852 | 33336 ft | 455 kts | 117° |
| 2026-04-29 18:52 | 54.48418 | 40.02672 | 33454 ft | 456 kts | 117° |
| 2026-04-29 18:52 | 54.47007 | 40.07567 | 33581 ft | 457 kts | 117° |
| 2026-04-29 18:52 | 54.45587 | 40.12482 | 33726 ft | 457 kts | 117° |
| 2026-04-29 18:52 | 54.44185 | 40.17326 | 33866 ft | 458 kts | 117° |
| 2026-04-29 18:53 | 54.42773 | 40.22193 | 34047 ft | 458 kts | 117° |
| 2026-04-29 18:53 | 54.41343 | 40.27111 | 34211 ft | 458 kts | 117° |
| 2026-04-29 18:53 | 54.39917 | 40.32006 | 34391 ft | 458 kts | 117° |
| 2026-04-29 18:53 | 54.38508 | 40.36834 | 34553 ft | 459 kts | 118° |
| 2026-04-29 18:54 | 54.37065 | 40.41769 | 34715 ft | 459 kts | 118° |
| 2026-04-29 18:54 | 54.35650 | 40.46596 | 34887 ft | 458 kts | 118° |
| 2026-04-29 18:54 | 54.34205 | 40.51519 | 35039 ft | 458 kts | 118° |
| 2026-04-29 18:54 | 54.32787 | 40.56337 | 35107 ft | 454 kts | 118° |
| 2026-04-29 18:55 | 54.29930 | 40.66013 | 35111 ft | 456 kts | 119° |
| 2026-04-29 18:55 | 54.27066 | 40.75676 | 35110 ft | 455 kts | 119° |
| 2026-04-29 18:56 | 54.24194 | 40.85326 | 35113 ft | 455 kts | 119° |
| 2026-04-29 18:56 | 54.21326 | 40.94923 | 35103 ft | 455 kts | 119° |
| 2026-04-29 18:57 | 54.18447 | 41.04518 | 35109 ft | 455 kts | 119° |
| 2026-04-29 18:57 | 54.15567 | 41.14080 | 35097 ft | 455 kts | 119° |
| 2026-04-29 18:58 | 54.12670 | 41.23659 | 35106 ft | 455 kts | 119° |
| 2026-04-29 18:58 | 54.09779 | 41.33176 | 35103 ft | 455 kts | 119° |
| 2026-04-29 18:59 | 54.06870 | 41.42717 | 35102 ft | 455 kts | 119° |
| 2026-04-29 18:59 | 54.03951 | 41.52255 | 35108 ft | 455 kts | 119° |
| 2026-04-29 19:00 | 54.01032 | 41.61749 | 35112 ft | 455 kts | 119° |
| 2026-04-29 19:00 | 53.98100 | 41.71252 | 35108 ft | 455 kts | 120° |
| 2026-04-29 19:01 | 53.95174 | 41.80700 | 35107 ft | 455 kts | 121° |
| 2026-04-29 19:01 | 53.92229 | 41.90168 | 35108 ft | 456 kts | 121° |
| 2026-04-29 19:02 | 53.89762 | 41.98073 | 35109 ft | 456 kts | 121° |
| 2026-04-29 19:02 | 53.86308 | 42.09094 | 35114 ft | 456 kts | 121° |
| 2026-04-29 19:03 | 53.83328 | 42.18566 | 35113 ft | 456 kts | 121° |
| 2026-04-29 19:03 | 53.80351 | 42.27988 | 35113 ft | 456 kts | 121° |
| 2026-04-29 19:04 | 53.77360 | 42.37376 | 35113 ft | 455 kts | 123° |
| 2026-04-29 19:04 | 53.73401 | 42.45512 | 35131 ft | 446 kts | 143° |
| 2026-04-29 19:05 | 53.68171 | 42.50787 | 35132 ft | 438 kts | 163° |
| 2026-04-29 19:05 | 53.62322 | 42.52893 | 35127 ft | 432 kts | 173° |
| 2026-04-29 19:06 | 53.56562 | 42.55644 | 35120 ft | 436 kts | 162° |
| 2026-04-29 19:07 | 53.48206 | 42.61756 | 35113 ft | 437 kts | 158° |
| 2026-04-29 19:07 | 53.42750 | 42.66179 | 35111 ft | 438 kts | 158° |
| 2026-04-29 19:08 | 53.37303 | 42.70703 | 35110 ft | 436 kts | 157° |
| 2026-04-29 19:08 | 53.31884 | 42.75232 | 35112 ft | 437 kts | 157° |
| 2026-04-29 19:09 | 53.26487 | 42.79750 | 35116 ft | 437 kts | 158° |
| 2026-04-29 19:09 | 53.21076 | 42.84272 | 35115 ft | 435 kts | 158° |
| 2026-04-29 19:10 | 53.15681 | 42.88769 | 35114 ft | 435 kts | 158° |
| 2026-04-29 19:10 | 53.10283 | 42.93258 | 35109 ft | 433 kts | 158° |
| 2026-04-29 19:11 | 53.04933 | 42.97694 | 35113 ft | 432 kts | 158° |
| 2026-04-29 19:11 | 52.99537 | 43.02155 | 35130 ft | 433 kts | 158° |
| 2026-04-29 19:12 | 52.94181 | 43.06571 | 35139 ft | 433 kts | 158° |
| 2026-04-29 19:12 | 52.88774 | 43.11018 | 35133 ft | 432 kts | 158° |
| 2026-04-29 19:13 | 52.83412 | 43.15413 | 35141 ft | 434 kts | 158° |
| 2026-04-29 19:13 | 52.77998 | 43.19841 | 35137 ft | 433 kts | 158° |
| 2026-04-29 19:14 | 52.72625 | 43.24223 | 35144 ft | 431 kts | 158° |
| 2026-04-29 19:14 | 52.67269 | 43.28577 | 35147 ft | 431 kts | 158° |
| 2026-04-29 19:15 | 52.61927 | 43.32909 | 35142 ft | 430 kts | 158° |
| 2026-04-29 19:15 | 52.56560 | 43.37251 | 35145 ft | 429 kts | 158° |
| 2026-04-29 19:16 | 52.51212 | 43.41563 | 35145 ft | 430 kts | 158° |
| 2026-04-29 19:16 | 52.45869 | 43.45862 | 35151 ft | 429 kts | 158° |
| 2026-04-29 19:17 | 52.40523 | 43.50150 | 35149 ft | 429 kts | 158° |
| 2026-04-29 19:17 | 52.35165 | 43.54435 | 35159 ft | 430 kts | 158° |
| 2026-04-29 19:18 | 52.29845 | 43.58680 | 35147 ft | 429 kts | 158° |
| 2026-04-29 19:18 | 52.24487 | 43.62942 | 35144 ft | 427 kts | 158° |
| 2026-04-29 19:19 | 52.19146 | 43.67181 | 35139 ft | 427 kts | 159° |
| 2026-04-29 19:19 | 52.13825 | 43.71392 | 35143 ft | 427 kts | 159° |
| 2026-04-29 19:20 | 52.08502 | 43.75594 | 35154 ft | 427 kts | 159° |
| 2026-04-29 19:20 | 52.03176 | 43.79787 | 35141 ft | 425 kts | 159° |
| 2026-04-29 19:21 | 51.97877 | 43.83946 | 35146 ft | 427 kts | 159° |
| 2026-04-29 19:21 | 51.92551 | 43.88117 | 35146 ft | 426 kts | 159° |
| 2026-04-29 19:22 | 51.87228 | 43.92273 | 35156 ft | 426 kts | 159° |
| 2026-04-29 19:22 | 51.81914 | 43.96411 | 35150 ft | 427 kts | 159° |
| 2026-04-29 19:23 | 51.76566 | 44.00567 | 35156 ft | 426 kts | 159° |
| 2026-04-29 19:23 | 51.71231 | 44.04700 | 35156 ft | 425 kts | 159° |
| 2026-04-29 19:24 | 51.65934 | 44.08794 | 35154 ft | 425 kts | 160° |
| 2026-04-29 19:24 | 51.60591 | 44.12912 | 35158 ft | 424 kts | 160° |
| 2026-04-29 19:25 | 51.55274 | 44.16998 | 35309 ft | 428 kts | 160° |
| 2026-04-29 19:25 | 51.52594 | 44.19054 | 35502 ft | 427 kts | 160° |
| 2026-04-29 19:25 | 51.49913 | 44.21108 | 35630 ft | 428 kts | 160° |
| 2026-04-29 19:25 | 51.47228 | 44.23163 | 35747 ft | 429 kts | 160° |
| 2026-04-29 19:26 | 51.44569 | 44.25196 | 35959 ft | 427 kts | 160° |
| 2026-04-29 19:26 | 51.39220 | 44.29277 | 36134 ft | 423 kts | 160° |
| 2026-04-29 19:27 | 51.33917 | 44.33310 | 36163 ft | 425 kts | 160° |
| 2026-04-29 19:27 | 51.28552 | 44.37380 | 36156 ft | 427 kts | 159° |
| 2026-04-29 19:28 | 51.23220 | 44.41416 | 36159 ft | 425 kts | 160° |
| 2026-04-29 19:28 | 51.17832 | 44.45114 | 36168 ft | 418 kts | 169° |
| 2026-04-29 19:29 | 51.12148 | 44.46102 | 36175 ft | 409 kts | 185° |
| 2026-04-29 19:29 | 51.06506 | 44.45840 | 36160 ft | 408 kts | 186° |
| 2026-04-29 19:30 | 51.00832 | 44.45425 | 36166 ft | 407 kts | 186° |
| 2026-04-29 19:30 | 50.95201 | 44.44942 | 36156 ft | 407 kts | 186° |
| 2026-04-29 19:31 | 50.89560 | 44.44435 | 36167 ft | 407 kts | 187° |
| 2026-04-29 19:31 | 50.83902 | 44.43915 | 36163 ft | 407 kts | 187° |
| 2026-04-29 19:32 | 50.78323 | 44.43401 | 36157 ft | 401 kts | 187° |
| 2026-04-29 19:32 | 50.72816 | 44.42893 | 36162 ft | 392 kts | 187° |
| 2026-04-29 19:33 | 50.67379 | 44.42388 | 36165 ft | 395 kts | 187° |
| 2026-04-29 19:33 | 50.61904 | 44.41883 | 36155 ft | 395 kts | 187° |
| 2026-04-29 19:34 | 50.56422 | 44.41380 | 36168 ft | 395 kts | 187° |
| 2026-04-29 19:34 | 50.50975 | 44.40879 | 36158 ft | 394 kts | 187° |
| 2026-04-29 19:35 | 50.45504 | 44.40378 | 36167 ft | 394 kts | 187° |
| 2026-04-29 19:35 | 50.40077 | 44.39883 | 36161 ft | 394 kts | 187° |
| 2026-04-29 19:36 | 50.34608 | 44.39384 | 36160 ft | 392 kts | 187° |
| 2026-04-29 19:36 | 50.29180 | 44.38891 | 36158 ft | 394 kts | 187° |
| 2026-04-29 19:37 | 50.23684 | 44.38392 | 36156 ft | 394 kts | 187° |
| 2026-04-29 19:37 | 50.18255 | 44.37901 | 36158 ft | 392 kts | 187° |
| 2026-04-29 19:38 | 50.12832 | 44.37411 | 36160 ft | 391 kts | 187° |
| 2026-04-29 19:38 | 50.07417 | 44.36923 | 36154 ft | 391 kts | 187° |
| 2026-04-29 19:39 | 50.01991 | 44.36434 | 36153 ft | 392 kts | 187° |
| 2026-04-29 19:39 | 49.96515 | 44.35944 | 36153 ft | 393 kts | 187° |
| 2026-04-29 19:40 | 49.91085 | 44.35458 | 36163 ft | 393 kts | 187° |
| 2026-04-29 19:40 | 49.85611 | 44.34969 | 36167 ft | 393 kts | 187° |
| 2026-04-29 19:41 | 49.80186 | 44.34486 | 36179 ft | 392 kts | 187° |
| 2026-04-29 19:41 | 49.74755 | 44.34003 | 36179 ft | 392 kts | 187° |
| 2026-04-29 19:42 | 49.69321 | 44.33521 | 36181 ft | 392 kts | 187° |
| 2026-04-29 19:42 | 49.63904 | 44.33042 | 36188 ft | 392 kts | 187° |
| 2026-04-29 19:43 | 49.58440 | 44.32766 | 36190 ft | 395 kts | 179° |
| 2026-04-29 19:43 | 49.53080 | 44.34947 | 36211 ft | 407 kts | 163° |
| 2026-04-29 19:44 | 49.47847 | 44.38198 | 36187 ft | 406 kts | 163° |
| 2026-04-29 19:44 | 49.42629 | 44.41477 | 36194 ft | 408 kts | 163° |
| 2026-04-29 19:45 | 49.37393 | 44.44786 | 36186 ft | 407 kts | 163° |
| 2026-04-29 19:45 | 49.32194 | 44.48071 | 36191 ft | 406 kts | 163° |
| 2026-04-29 19:46 | 49.26963 | 44.51373 | 36187 ft | 406 kts | 163° |
| 2026-04-29 19:46 | 49.21767 | 44.54646 | 36185 ft | 405 kts | 163° |
| 2026-04-29 19:47 | 49.16563 | 44.57918 | 36185 ft | 405 kts | 163° |
| 2026-04-29 19:47 | 49.11372 | 44.61172 | 36187 ft | 405 kts | 163° |
| 2026-04-29 19:48 | 49.06146 | 44.64442 | 36187 ft | 406 kts | 163° |
| 2026-04-29 19:48 | 49.00926 | 44.67702 | 36187 ft | 404 kts | 163° |
| 2026-04-29 19:49 | 48.95749 | 44.70926 | 36180 ft | 404 kts | 163° |
| 2026-04-29 19:49 | 48.90529 | 44.74169 | 36189 ft | 405 kts | 163° |
| 2026-04-29 19:50 | 48.85370 | 44.77395 | 36187 ft | 404 kts | 161° |
| 2026-04-29 19:50 | 48.80596 | 44.82175 | 36206 ft | 418 kts | 149° |
| 2026-04-29 19:51 | 48.76027 | 44.87543 | 36190 ft | 415 kts | 149° |
| 2026-04-29 19:51 | 48.71482 | 44.92902 | 36193 ft | 415 kts | 149° |
| 2026-04-29 19:52 | 48.66925 | 44.98277 | 36195 ft | 416 kts | 148° |
| 2026-04-29 19:52 | 48.62391 | 45.03619 | 36194 ft | 416 kts | 149° |
| 2026-04-29 19:53 | 48.57855 | 45.08953 | 36193 ft | 415 kts | 149° |
| 2026-04-29 19:53 | 48.53298 | 45.14297 | 36192 ft | 415 kts | 149° |
| 2026-04-29 19:54 | 48.46484 | 45.22268 | 36190 ft | 414 kts | 149° |
| 2026-04-29 19:54 | 48.41943 | 45.27563 | 36194 ft | 414 kts | 149° |
| 2026-04-29 19:55 | 48.37083 | 45.31810 | 36192 ft | 404 kts | 160° |
| 2026-04-29 19:55 | 48.32056 | 45.35557 | 36177 ft | 404 kts | 160° |
| 2026-04-29 19:56 | 48.27031 | 45.39265 | 36183 ft | 404 kts | 160° |
| 2026-04-29 19:56 | 48.21985 | 45.42969 | 36183 ft | 403 kts | 160° |
| 2026-04-29 19:57 | 48.17797 | 45.46033 | 36180 ft | 403 kts | 160° |
| 2026-04-29 19:57 | 48.11936 | 45.50310 | 36178 ft | 403 kts | 160° |
| 2026-04-29 19:58 | 48.06907 | 45.53970 | 36174 ft | 403 kts | 160° |
| 2026-04-29 19:58 | 48.01875 | 45.57627 | 36170 ft | 401 kts | 160° |
| 2026-04-29 19:59 | 47.96868 | 45.61253 | 36172 ft | 402 kts | 160° |
| 2026-04-29 19:59 | 47.91875 | 45.64865 | 36174 ft | 402 kts | 160° |
| 2026-04-29 20:00 | 47.86830 | 45.68505 | 36174 ft | 401 kts | 161° |
| 2026-04-29 20:00 | 47.81840 | 45.72097 | 36173 ft | 402 kts | 161° |
| 2026-04-29 20:01 | 47.76819 | 45.75705 | 36172 ft | 403 kts | 161° |
| 2026-04-29 20:01 | 47.71783 | 45.79316 | 36169 ft | 401 kts | 161° |
| 2026-04-29 20:02 | 47.66756 | 45.82912 | 36170 ft | 401 kts | 161° |
| 2026-04-29 20:02 | 47.62569 | 45.85901 | 36168 ft | 402 kts | 161° |
| 2026-04-29 20:03 | 47.56692 | 45.90087 | 36165 ft | 402 kts | 161° |
| 2026-04-29 20:03 | 47.51679 | 45.93651 | 36162 ft | 401 kts | 161° |
| 2026-04-29 20:04 | 47.46682 | 45.97194 | 36163 ft | 402 kts | 161° |
| 2026-04-29 20:04 | 47.41773 | 46.00669 | 36162 ft | 401 kts | 161° |
| 2026-04-29 20:05 | 47.36732 | 46.04235 | 36159 ft | 402 kts | 160° |
| 2026-04-29 20:05 | 47.31704 | 46.07793 | 36159 ft | 402 kts | 161° |
| 2026-04-29 20:06 | 47.26703 | 46.11325 | 36157 ft | 401 kts | 160° |
| 2026-04-29 20:06 | 47.21675 | 46.14868 | 36154 ft | 401 kts | 160° |
| 2026-04-29 20:07 | 47.16647 | 46.18404 | 36156 ft | 402 kts | 160° |
| 2026-04-29 20:07 | 47.11599 | 46.21947 | 36150 ft | 401 kts | 160° |
| 2026-04-29 20:08 | 47.07468 | 46.25003 | 36157 ft | 407 kts | 153° |
| 2026-04-29 20:08 | 47.04512 | 46.28500 | 36173 ft | 418 kts | 140° |
| 2026-04-29 20:08 | 47.02663 | 46.31844 | 36168 ft | 428 kts | 130° |
| 2026-04-29 20:09 | 47.01065 | 46.35545 | 35861 ft | 430 kts | 129° |
| 2026-04-29 20:09 | 46.99499 | 46.39187 | 36160 ft | 424 kts | 129° |
| 2026-04-29 20:09 | 46.96340 | 46.46516 | 36152 ft | 430 kts | 128° |
| 2026-04-29 20:10 | 46.93147 | 46.53931 | 36144 ft | 433 kts | 128° |
| 2026-04-29 20:10 | 46.89941 | 46.61363 | 36146 ft | 430 kts | 128° |
| 2026-04-29 20:11 | 46.86783 | 46.68665 | 36158 ft | 429 kts | 129° |
| 2026-04-29 20:11 | 46.83585 | 46.76035 | 36164 ft | 428 kts | 129° |
| 2026-04-29 20:12 | 46.80417 | 46.83321 | 36153 ft | 427 kts | 129° |
| 2026-04-29 20:12 | 46.77247 | 46.90592 | 36165 ft | 427 kts | 129° |
| 2026-04-29 20:13 | 46.74062 | 46.97876 | 36156 ft | 427 kts | 129° |
| 2026-04-29 20:13 | 46.70864 | 47.05173 | 36155 ft | 427 kts | 129° |
| 2026-04-29 20:14 | 46.67681 | 47.12414 | 36156 ft | 427 kts | 129° |
| 2026-04-29 20:14 | 46.64480 | 47.19679 | 36157 ft | 428 kts | 129° |
| 2026-04-29 20:15 | 46.61285 | 47.26911 | 36160 ft | 428 kts | 129° |
| 2026-04-29 20:15 | 46.58070 | 47.34169 | 36154 ft | 427 kts | 129° |
| 2026-04-29 20:16 | 46.54852 | 47.41415 | 36155 ft | 427 kts | 129° |
| 2026-04-29 20:16 | 46.51653 | 47.48600 | 36157 ft | 428 kts | 129° |
| 2026-04-29 20:17 | 46.48427 | 47.55827 | 36157 ft | 428 kts | 129° |
| 2026-04-29 20:17 | 46.45207 | 47.63022 | 36159 ft | 426 kts | 129° |
| 2026-04-29 20:18 | 46.41965 | 47.70248 | 36154 ft | 426 kts | 129° |
| 2026-04-29 20:18 | 46.38755 | 47.77383 | 36159 ft | 426 kts | 129° |
| 2026-04-29 20:19 | 46.35515 | 47.84566 | 36161 ft | 427 kts | 129° |
| 2026-04-29 20:19 | 46.32283 | 47.91714 | 36157 ft | 426 kts | 129° |
| 2026-04-29 20:20 | 46.29091 | 47.98954 | 36163 ft | 430 kts | 123° |
| 2026-04-29 20:20 | 46.27174 | 48.07190 | 36181 ft | 443 kts | 108° |
| 2026-04-29 20:21 | 46.25845 | 48.15895 | 36168 ft | 443 kts | 108° |
| 2026-04-29 20:21 | 46.24508 | 48.24584 | 36161 ft | 450 kts | 108° |
| 2026-04-29 20:22 | 46.23140 | 48.33460 | 36149 ft | 454 kts | 108° |
| 2026-04-29 20:22 | 46.21769 | 48.42314 | 36152 ft | 453 kts | 108° |
| 2026-04-29 20:23 | 46.19741 | 48.50674 | 36157 ft | 439 kts | 125° |
| 2026-04-29 20:23 | 46.16005 | 48.57415 | 36159 ft | 426 kts | 144° |
| 2026-04-29 20:24 | 46.11105 | 48.61850 | 36147 ft | 415 kts | 160° |
| 2026-04-29 20:24 | 46.05786 | 48.64857 | 36133 ft | 411 kts | 165° |
| 2026-04-29 20:25 | 46.00333 | 48.67388 | 36120 ft | 410 kts | 167° |
| 2026-04-29 20:25 | 45.94859 | 48.69722 | 36114 ft | 410 kts | 168° |
| 2026-04-29 20:26 | 45.89385 | 48.71968 | 36113 ft | 412 kts | 168° |
| 2026-04-29 20:26 | 45.83867 | 48.74195 | 36118 ft | 412 kts | 168° |
| 2026-04-29 20:27 | 45.79297 | 48.76027 | 36122 ft | 411 kts | 168° |
| 2026-04-29 20:27 | 45.72874 | 48.78589 | 36122 ft | 412 kts | 168° |
| 2026-04-29 20:28 | 45.67348 | 48.80787 | 36126 ft | 412 kts | 168° |
| 2026-04-29 20:28 | 45.61822 | 48.82979 | 36117 ft | 413 kts | 168° |
| 2026-04-29 20:29 | 45.56307 | 48.85163 | 36116 ft | 413 kts | 168° |
| 2026-04-29 20:29 | 45.50769 | 48.87351 | 36117 ft | 414 kts | 168° |
| 2026-04-29 20:30 | 45.45216 | 48.89541 | 36109 ft | 414 kts | 168° |
| 2026-04-29 20:30 | 45.39645 | 48.91734 | 36115 ft | 415 kts | 168° |
| 2026-04-29 20:31 | 45.34085 | 48.93917 | 36106 ft | 414 kts | 168° |
| 2026-04-29 20:31 | 45.28561 | 48.96081 | 36116 ft | 415 kts | 168° |
| 2026-04-29 20:32 | 45.22975 | 48.98266 | 36109 ft | 416 kts | 168° |
| 2026-04-29 20:32 | 45.17385 | 49.00448 | 36110 ft | 417 kts | 168° |
| 2026-04-29 20:33 | 45.11801 | 49.02623 | 36102 ft | 417 kts | 168° |
| 2026-04-29 20:33 | 45.06236 | 49.04786 | 36107 ft | 418 kts | 168° |
| 2026-04-29 20:34 | 45.00643 | 49.06957 | 36106 ft | 418 kts | 168° |
| 2026-04-29 20:34 | 44.95040 | 49.09125 | 36106 ft | 418 kts | 168° |
| 2026-04-29 20:35 | 44.89438 | 49.11290 | 36105 ft | 418 kts | 168° |
| 2026-04-29 20:35 | 44.83828 | 49.13453 | 36113 ft | 419 kts | 168° |
| 2026-04-29 20:36 | 44.78209 | 49.15616 | 36112 ft | 418 kts | 168° |
| 2026-04-29 20:36 | 44.72623 | 49.17761 | 36109 ft | 418 kts | 168° |
| 2026-04-29 20:37 | 44.67001 | 49.19915 | 36109 ft | 419 kts | 168° |
| 2026-04-29 20:37 | 44.61393 | 49.22060 | 36108 ft | 419 kts | 168° |
| 2026-04-29 20:38 | 44.55781 | 49.24203 | 36109 ft | 420 kts | 168° |
| 2026-04-29 20:38 | 44.50137 | 49.26353 | 36106 ft | 419 kts | 168° |
| 2026-04-29 20:39 | 44.44507 | 49.28493 | 36109 ft | 420 kts | 168° |
| 2026-04-29 20:39 | 44.38891 | 49.30625 | 36110 ft | 420 kts | 168° |
| 2026-04-29 20:40 | 44.33255 | 49.32758 | 36110 ft | 421 kts | 168° |
| 2026-04-29 20:40 | 44.27607 | 49.34893 | 36106 ft | 421 kts | 168° |
| 2026-04-29 20:41 | 44.21957 | 49.37025 | 36113 ft | 420 kts | 168° |
| 2026-04-29 20:41 | 44.16325 | 49.39144 | 36114 ft | 421 kts | 168° |
| 2026-04-29 20:42 | 44.10632 | 49.41170 | 36109 ft | 418 kts | 174° |
| 2026-04-29 20:42 | 44.04909 | 49.41067 | 36120 ft | 412 kts | 194° |
| 2026-04-29 20:43 | 43.99660 | 49.38134 | 36124 ft | 409 kts | 214° |
| 2026-04-29 20:43 | 43.95491 | 49.32885 | 36129 ft | 409 kts | 231° |
| 2026-04-29 20:44 | 43.92764 | 49.25912 | 36127 ft | 413 kts | 245° |
| 2026-04-29 20:44 | 43.90454 | 49.18701 | 36115 ft | 412 kts | 243° |
| 2026-04-29 20:45 | 43.87987 | 49.11552 | 36120 ft | 411 kts | 242° |
| 2026-04-29 20:45 | 43.85466 | 49.04459 | 36121 ft | 411 kts | 242° |
| 2026-04-29 20:46 | 43.82927 | 48.97409 | 36120 ft | 411 kts | 242° |
| 2026-04-29 20:46 | 43.81648 | 48.93876 | 35924 ft | 416 kts | 242° |
| 2026-04-29 20:46 | 43.80352 | 48.90305 | 35477 ft | 414 kts | 242° |
| 2026-04-29 20:47 | 43.79086 | 48.86818 | 35032 ft | 406 kts | 241° |
| 2026-04-29 20:47 | 43.77829 | 48.83366 | 34584 ft | 398 kts | 241° |
| 2026-04-29 20:47 | 43.76595 | 48.79980 | 34082 ft | 393 kts | 241° |
| 2026-04-29 20:47 | 43.75370 | 48.76629 | 33559 ft | 394 kts | 241° |
| 2026-04-29 20:48 | 43.74134 | 48.73255 | 33033 ft | 401 kts | 241° |
| 2026-04-29 20:48 | 43.72860 | 48.69777 | 32472 ft | 407 kts | 242° |
| 2026-04-29 20:48 | 43.71582 | 48.66295 | 31892 ft | 408 kts | 242° |
| 2026-04-29 20:48 | 43.70316 | 48.62845 | 31305 ft | 408 kts | 242° |
| 2026-04-29 20:49 | 43.69029 | 48.59346 | 30702 ft | 406 kts | 242° |
| 2026-04-29 20:49 | 43.67764 | 48.55907 | 30068 ft | 403 kts | 242° |
| 2026-04-29 20:49 | 43.66503 | 48.52486 | 29420 ft | 398 kts | 242° |
| 2026-04-29 20:49 | 43.65261 | 48.49119 | 28798 ft | 393 kts | 242° |
| 2026-04-29 20:50 | 43.64034 | 48.45797 | 28194 ft | 388 kts | 242° |
| 2026-04-29 20:50 | 43.62822 | 48.42519 | 27617 ft | 385 kts | 242° |
| 2026-04-29 20:50 | 43.61606 | 48.39234 | 27046 ft | 384 kts | 242° |
| 2026-04-29 20:50 | 43.60395 | 48.35970 | 26489 ft | 384 kts | 243° |
| 2026-04-29 20:51 | 43.59170 | 48.32670 | 25927 ft | 381 kts | 242° |
| 2026-04-29 20:51 | 43.57983 | 48.29476 | 25376 ft | 377 kts | 242° |
| 2026-04-29 20:51 | 43.56792 | 48.26291 | 24829 ft | 374 kts | 242° |
| 2026-04-29 20:51 | 43.55607 | 48.23098 | 24324 ft | 371 kts | 242° |
| 2026-04-29 20:52 | 43.54442 | 48.19972 | 23833 ft | 370 kts | 242° |
| 2026-04-29 20:52 | 43.53270 | 48.16829 | 23343 ft | 369 kts | 242° |
| 2026-04-29 20:52 | 43.52101 | 48.13699 | 22849 ft | 368 kts | 243° |
| 2026-04-29 20:52 | 43.50938 | 48.10591 | 22355 ft | 365 kts | 243° |
| 2026-04-29 20:53 | 43.49776 | 48.07488 | 21860 ft | 362 kts | 243° |
| 2026-04-29 20:53 | 43.48636 | 48.04446 | 21380 ft | 360 kts | 243° |
| 2026-04-29 20:53 | 43.47488 | 48.01391 | 20893 ft | 359 kts | 243° |
| 2026-04-29 20:53 | 43.46350 | 47.98360 | 20406 ft | 357 kts | 243° |
| 2026-04-29 20:54 | 43.44088 | 47.92350 | 19432 ft | 353 kts | 243° |
| 2026-04-29 20:54 | 43.42961 | 47.89360 | 18947 ft | 351 kts | 243° |
| 2026-04-29 20:54 | 43.41851 | 47.86421 | 18470 ft | 349 kts | 243° |
| 2026-04-29 20:55 | 43.40734 | 47.83461 | 17996 ft | 348 kts | 243° |
| 2026-04-29 20:55 | 43.39618 | 47.80510 | 17518 ft | 347 kts | 243° |
| 2026-04-29 20:55 | 43.38518 | 47.77606 | 17043 ft | 346 kts | 243° |
| 2026-04-29 20:55 | 43.37409 | 47.74677 | 16554 ft | 344 kts | 243° |
| 2026-04-29 20:56 | 43.36306 | 47.71769 | 16015 ft | 343 kts | 243° |
| 2026-04-29 20:56 | 43.35223 | 47.68919 | 15799 ft | 330 kts | 243° |
| 2026-04-29 20:56 | 43.34168 | 47.66140 | 15321 ft | 328 kts | 243° |
| 2026-04-29 20:56 | 43.33120 | 47.63389 | 14821 ft | 326 kts | 243° |
| 2026-04-29 20:57 | 43.32081 | 47.60659 | 14207 ft | 326 kts | 243° |
| 2026-04-29 20:57 | 43.31028 | 47.57898 | 13585 ft | 325 kts | 243° |
| 2026-04-29 20:57 | 43.29995 | 47.55190 | 12990 ft | 322 kts | 243° |
| 2026-04-29 20:57 | 43.28960 | 47.52481 | 12332 ft | 319 kts | 243° |
| 2026-04-29 20:58 | 43.27944 | 47.49824 | 11714 ft | 315 kts | 243° |
| 2026-04-29 20:58 | 43.26936 | 47.47148 | 11082 ft | 312 kts | 248° |
| 2026-04-29 20:58 | 43.26312 | 47.44362 | 10380 ft | 310 kts | 259° |
| 2026-04-29 20:58 | 43.25864 | 47.41478 | 9785 ft | 305 kts | 259° |
| 2026-04-29 20:59 | 43.25413 | 47.38688 | 9378 ft | 295 kts | 259° |
| 2026-04-29 20:59 | 43.24968 | 47.36020 | 9000 ft | 283 kts | 253° |
| 2026-04-29 20:59 | 43.24107 | 47.33615 | 8319 ft | 285 kts | 238° |
| 2026-04-29 20:59 | 43.23064 | 47.31338 | 7670 ft | 280 kts | 239° |
| 2026-04-29 21:00 | 43.21878 | 47.29264 | 6883 ft | 282 kts | 218° |
| 2026-04-29 21:00 | 43.20141 | 47.28097 | 6324 ft | 280 kts | 189° |
| 2026-04-29 21:00 | 43.18250 | 47.28241 | 6266 ft | 265 kts | 159° |
| 2026-04-29 21:00 | 43.16679 | 47.29452 | 5872 ft | 265 kts | 135° |
| 2026-04-29 21:01 | 43.15382 | 47.31240 | 5587 ft | 259 kts | 133° |
| 2026-04-29 21:01 | 43.14088 | 47.32955 | 5222 ft | 258 kts | 135° |
| 2026-04-29 21:01 | 43.12803 | 47.34603 | 4954 ft | 253 kts | 136° |
| 2026-04-29 21:01 | 43.11506 | 47.36239 | 4693 ft | 257 kts | 136° |
| 2026-04-29 21:02 | 43.10177 | 47.37902 | 4448 ft | 260 kts | 136° |
| 2026-04-29 21:02 | 43.08838 | 47.39564 | 4191 ft | 257 kts | 137° |
| 2026-04-29 21:02 | 43.07526 | 47.41188 | 3924 ft | 254 kts | 137° |
| 2026-04-29 21:02 | 43.06221 | 47.42799 | 3733 ft | 252 kts | 136° |
| 2026-04-29 21:03 | 43.04921 | 47.44404 | 3563 ft | 253 kts | 137° |
| 2026-04-29 21:03 | 43.03619 | 47.46008 | 3386 ft | 253 kts | 136° |
| 2026-04-29 21:03 | 43.02309 | 47.47626 | 3251 ft | 251 kts | 136° |
| 2026-04-29 21:03 | 43.00914 | 47.49016 | 3127 ft | 249 kts | 148° |
| 2026-04-29 21:04 | 42.99455 | 47.50200 | 2993 ft | 239 kts | 148° |
| 2026-04-29 21:04 | 42.98042 | 47.51360 | 2851 ft | 231 kts | 147° |
| 2026-04-29 21:04 | 42.96727 | 47.52499 | 2758 ft | 220 kts | 147° |
| 2026-04-29 21:04 | 42.95450 | 47.53592 | 2618 ft | 211 kts | 147° |
| 2026-04-29 21:05 | 42.94238 | 47.54622 | 2478 ft | 202 kts | 147° |
| 2026-04-29 21:05 | 42.93089 | 47.55596 | 2356 ft | 182 kts | 147° |
| 2026-04-29 21:05 | 42.92014 | 47.56505 | 2327 ft | 193 kts | 147° |
| 2026-04-29 21:05 | 42.90868 | 47.57475 | 2081 ft | 187 kts | 147° |
| 2026-04-29 21:06 | 42.89803 | 47.58374 | 1807 ft | 170 kts | 147° |
| 2026-04-29 21:06 | 42.88857 | 47.59170 | 1557 ft | 154 kts | 147° |
| 2026-04-29 21:06 | 42.87983 | 47.59906 | 1318 ft | 142 kts | 147° |
| 2026-04-29 21:06 | 42.87140 | 47.60630 | 1156 ft | 146 kts | 147° |
| 2026-04-29 21:07 | 42.86261 | 47.61379 | 970 ft | 147 kts | 147° |
| 2026-04-29 21:07 | 42.85389 | 47.62103 | 801 ft | 150 kts | 148° |
| 2026-04-29 21:07 | 42.84510 | 47.62830 | 586 ft | 146 kts | 148° |
| 2026-04-29 21:07 | 42.83654 | 47.63567 | 292 ft | 143 kts | 146° |
| 2026-04-29 21:08 | 42.82821 | 47.64286 | 90 ft | 142 kts | 148° |
| 2026-04-29 21:08 | 42.81985 | 47.64971 | 18 ft | 133 kts | 147° |
| 2026-04-29 21:08 | 42.81387 | 47.65492 | 20 ft | 70 kts | 148° |
| 2026-04-29 21:08 | 42.81101 | 47.65735 | 22 ft | 34 kts | 149° |
| 2026-04-29 21:09 | 42.80901 | 47.65906 | 22 ft | 33 kts | 148° |
| 2026-04-29 21:09 | 42.80743 | 47.66040 | 23 ft | 8 kts | 148° |
| 2026-04-29 21:09 | 42.80705 | 47.66074 | 23 ft | 2 kts | 136° |
| 2026-04-29 21:09 | 42.80707 | 47.66093 | 22 ft | 2 kts | 39° |
| 2026-04-29 21:10 | 42.80724 | 47.66081 | 22 ft | 6 kts | 306° |
| 2026-04-29 21:10 | 42.80786 | 47.66005 | 23 ft | 19 kts | 327° |
| 2026-04-29 21:10 | 42.80943 | 47.65870 | 22 ft | 34 kts | 327° |
| 2026-04-29 21:10 | 42.81177 | 47.65671 | 21 ft | 41 kts | 328° |
| 2026-04-29 21:11 | 42.81421 | 47.65468 | 19 ft | 40 kts | 328° |
| 2026-04-29 21:11 | 42.81573 | 47.65335 | 17 ft | 12 kts | 328° |
| 2026-04-29 21:11 | 42.81625 | 47.65304 | 16 ft | 6 kts | 358° |
| 2026-04-29 21:11 | 42.81664 | 47.65337 | 15 ft | 7 kts | 51° |
| 2026-04-29 21:12 | 42.81704 | 47.65425 | 12 ft | 14 kts | 58° |
| 2026-04-29 21:12 | 42.81750 | 47.65521 | 12 ft | 8 kts | 49° |
| 2026-04-29 21:12 | 42.81797 | 47.65571 | 11 ft | 8 kts | 28° |
| 2026-04-29 21:12 | 42.81842 | 47.65568 | 10 ft | 6 kts | 324° |
| 2026-04-29 21:13 | 42.81883 | 47.65528 | 10 ft | 9 kts | 327° |
| 2026-04-29 21:13 | 42.81947 | 47.65472 | 10 ft | 11 kts | 327° |
| 2026-04-29 21:13 | 42.81984 | 47.65439 | 9 ft | 5 kts | 327° |
| 2026-04-29 21:13 | 42.82024 | 47.65406 | 8 ft | 6 kts | 332° |
| 2026-04-29 21:14 | 42.82067 | 47.65413 | 9 ft | 6 kts | 35° |
| 2026-04-29 21:14 | 42.82087 | 47.65453 | 8 ft | 5 kts | 62° |
| 2026-04-29 21:14 | 42.82090 | 47.65459 | 8 ft | 0 kts | 62° |